KADC

Wadena Municipal Airport

Wadena, Minnesota, USA
METAR KADC 231456Z AUTO 11004KT 10SM SCT050 21/16 A3007 RMK AO2
Observed Flight Rules
May-23 @ 14:56 UTC (11 minutes ago) Visual Flight Rules
Wind Visibility Clouds
110° at 4 knots 10 miles
  • Scattered at 5,000' AGL
Temperatures Readings
Current 21°C / 70°F
Dewpoint 16°C / 61°F
Humidity 73%
Altimeter 30.07" Hg
Pressure 1018 hPa
Elevation 418
METAR KADC 231456Z AUTO 11004KT 10SM SCT050 21/16 A3007 RMK AO2
Observed Flight Rules
May-23 @ 14:56 UTC
(11 minutes ago)
VFR
Wind Visibility
110° at 4 knots 10 miles
Clouds
  • Scattered at 5,000' AGL
Temperature Dewpoint
21°C / 70°F 16°C / 61°F
Humidity Altimeter Pressure
73% 30.07" Hg 1018 hPa